This is the latest recevied weather packets stored in our database for station/object N5PA. If no packets are shown the sender has not sent any weather packets the latest 1 day(s).
| Time | Temp. | Humidity | Pressure | Rain* | Wind** | Luminosity | Snow |
|---|---|---|---|---|---|---|---|
| 1836274679 | 25° C | 69% | 1017.3 hPa | 0 mm | 0.45 m/s, 205° | 745 W/m² | - |
| 1836274530 | 25° C | 70% | 1017.1 hPa | 0 mm | 0.45 m/s, 205° | 751 W/m² | - |
| 1836274380 | 25° C | 68% | 1017.3 hPa | 0 mm | 0 m/s | 733 W/m² | - |
| 1836274230 | 25° C | 70% | 1017.2 hPa | 0 mm | 0.45 m/s, 205° | 747 W/m² | - |
| 1836274079 | 25° C | 68% | 1017.1 hPa | 0 mm | 0 m/s | 731 W/m² | - |
| 1778051406 | 21.11° C | 52% | 1011.8 hPa | 0 mm | 0.45 m/s, 177° | 997 W/m² | - |
| 1778051106 | 20.56° C | 52% | 1011.9 hPa | 0 mm | 0.45 m/s, 172° | 998 W/m² | - |
| 1778050806 | 20.56° C | 51% | 1011.9 hPa | 0 mm | 0.45 m/s, 190° | 997 W/m² | - |
| 1778050505 | 20.56° C | 52% | 1011.9 hPa | 0 mm | 0.89 m/s, 203° | 998 W/m² | - |
| 1778050204 | 20.56° C | 51% | 1011.9 hPa | 0 mm | 0.89 m/s, 201° | 998 W/m² | - |
| 1778049905 | 20.56° C | 51% | 1012 hPa | 0 mm | 0.89 m/s, 194° | 998 W/m² | - |
| 1778049605 | 20.56° C | 52% | 1012.2 hPa | 0 mm | 0.45 m/s, 198° | 1000 W/m² | - |
| 1778049305 | 20.56° C | 53% | 1012.2 hPa | 0 mm | 0.45 m/s, 206° | 1000 W/m² | - |
| 1778049005 | 20.56° C | 53% | 1012.3 hPa | 0 mm | 0.45 m/s, 203° | 998 W/m² | - |
| 1778048705 | 20.56° C | 53% | 1012.3 hPa | 0 mm | 0.45 m/s, 171° | 998 W/m² | - |
| 1778048404 | 20.56° C | 54% | 1012.4 hPa | 0 mm | 0.89 m/s, 158° | 998 W/m² | - |
| 1778048104 | 20.56° C | 67% | 1012.4 hPa | 0 mm | 0.89 m/s, 158° | 1000 W/m² | - |
| 1778047805 | 20.56° C | 67% | 1012.4 hPa | 0 mm | 0.89 m/s, 158° | 1000 W/m² | - |
| 1778047505 | 20.56° C | 67% | 1012.4 hPa | 0 mm | 0.89 m/s, 158° | 1000 W/m² | - |
| 1778047205 | 20.56° C | 67% | 1012.4 hPa | 0 mm | 0.89 m/s, 158° | 1000 W/m² | - |
| 1778046905 | 20.56° C | 67% | 1012.4 hPa | 0 mm | 0.89 m/s, 158° | 1000 W/m² | - |
| 1778046604 | 20.56° C | 67% | 1012.4 hPa | 0 mm | 0.89 m/s, 158° | 1000 W/m² | - |
| 1778046304 | 20.56° C | 67% | 1012.4 hPa | 0 mm | 0.89 m/s, 158° | 1000 W/m² | - |
| 1778046009 | 20.56° C | 67% | 1012.4 hPa | 0 mm | 0.89 m/s, 158° | 1000 W/m² | - |
| 1778045708 | 20.56° C | 67% | 1012.4 hPa | 0 mm | 0.89 m/s, 158° | 1000 W/m² | - |
* Rain latest hour (hover to see other rain measurements)
** Current wind speed in m/s (hover to see current wind gust speed)